Time;durP1;ratioP1;P1;durP2;ratioP2;P2;SDS_P1;SDS_P2;PMS_P1;PMS_P2;Temp;Humidity;BMP_temperature;BMP_pressure;BME280_temperature;BME280_humidity;BME280_pressure;Samples;Min_cycle;Max_cycle;Signal;HPM_P1;HPM_P2
2022/01/16 00:04:30;;;;;;;57.95;13.10;;;;;;;0.27;87.93;101542.58;1724464;81;21814;-75
2022/01/16 00:06:56;;;;;;;35.92;12.37;;;;;;;0.30;87.93;101545.51;1716363;81;21023;-75
2022/01/16 00:09:22;;;;;;;113.88;33.38;;;;;;;0.34;87.90;101533.48;1721647;81;21030;-75
2022/01/16 00:11:49;;;;;;;238.97;76.60;;;;;;;0.38;87.90;101531.09;1719888;81;20999;-76
2022/01/16 00:14:16;;;;;;;303.05;100.30;;;;;;;0.41;87.88;101533.56;1724294;81;21049;-76
2022/01/16 00:16:42;;;;;;;160.90;48.68;;;;;;;0.42;87.89;101536.55;1728039;81;21106;-76
2022/01/16 00:19:08;;;;;;;104.00;30.70;;;;;;;0.44;87.87;101534.71;1718945;81;21065;-76
2022/01/16 00:21:41;;;;;;;79.87;24.27;;;;;;;0.39;87.85;101531.45;1731802;81;20920;-76
2022/01/16 00:24:06;;;;;;;70.83;19.30;;;;;;;0.37;87.82;101537.26;1722676;81;21017;-76
2022/01/16 00:26:33;;;;;;;49.77;16.70;;;;;;;0.39;87.81;101538.02;1730325;81;21093;-76
2022/01/16 00:28:59;;;;;;;55.38;16.42;;;;;;;0.41;87.79;101528.31;1721926;81;21180;-76
2022/01/16 00:31:25;;;;;;;43.10;12.93;;;;;;;0.42;87.78;101543.10;1734572;81;21027;-76
2022/01/16 00:33:51;;;;;;;36.23;9.80;;;;;;;0.43;87.75;101539.56;1745766;81;21456;-76
2022/01/16 00:36:18;;;;;;;32.15;9.23;;;;;;;0.41;87.71;101519.13;1734057;81;20986;-76
2022/01/16 00:38:46;;;;;;;28.40;9.68;;;;;;;0.40;87.71;101504.30;1733072;81;21026;-76
2022/01/16 00:41:12;;;;;;;32.48;11.10;;;;;;;0.41;87.70;101506.01;1740113;81;21453;-76
2022/01/16 00:43:39;;;;;;;42.60;16.25;;;;;;;0.40;87.70;101502.99;1741453;81;21551;-76
2022/01/16 00:46:05;;;;;;;52.35;15.05;;;;;;;0.45;87.69;101519.36;1721969;81;21053;-75
2022/01/16 00:48:31;;;;;;;52.30;18.05;;;;;;;0.45;87.68;101528.55;1731123;81;20994;-76
2022/01/16 00:50:57;;;;;;;51.98;17.40;;;;;;;0.41;87.68;101519.13;1732409;81;21036;-76
2022/01/16 00:53:23;;;;;;;44.25;12.98;;;;;;;0.42;87.66;101532.61;1695194;82;21150;-76
2022/01/16 00:55:49;;;;;;;40.10;12.98;;;;;;;0.43;87.64;101533.47;1731517;81;21106;-76
2022/01/16 00:58:15;;;;;;;42.98;14.98;;;;;;;0.43;87.62;101494.11;1731034;81;21483;-75
2022/01/16 01:00:41;;;;;;;49.23;16.02;;;;;;;0.42;87.57;101494.56;1733798;81;21494;-76
2022/01/16 01:03:07;;;;;;;65.55;24.67;;;;;;;0.45;87.57;101504.08;1736926;81;21053;-76
2022/01/16 01:05:34;;;;;;;100.80;37.63;;;;;;;0.42;87.54;101524.73;1730815;81;21034;-76
2022/01/16 01:08:02;;;;;;;72.60;25.30;;;;;;;0.39;87.53;101528.84;1733377;81;21001;-75
2022/01/16 01:10:35;;;;;;;56.88;18.23;;;;;;;0.37;87.49;101517.58;1729501;81;21009;-76
2022/01/16 01:13:07;;;;;;;37.78;11.38;;;;;;;0.38;87.51;101528.93;1731741;81;21605;-76
2022/01/16 01:15:30;;;;;;;41.77;12.63;;;;;;;0.42;87.48;101516.87;1731847;81;21499;-76
2022/01/16 01:17:55;;;;;;;41.02;11.15;;;;;;;0.49;87.46;101531.86;1741472;80;21595;-76
2022/01/16 01:20:22;;;;;;;43.92;11.63;;;;;;;0.53;87.44;101490.57;1745482;80;21037;-76
2022/01/16 01:22:50;;;;;;;40.17;11.38;;;;;;;0.56;87.42;101479.91;1731475;81;21006;-76
2022/01/16 01:25:17;;;;;;;38.40;11.40;;;;;;;0.49;87.42;101498.57;1762026;78;21049;-76
2022/01/16 01:27:44;;;;;;;34.80;9.98;;;;;;;0.48;87.41;101501.30;1769788;78;21067;-75
2022/01/16 01:30:18;;;;;;;38.20;10.68;;;;;;;0.50;87.42;101497.66;1778983;78;21161;-75
2022/01/16 01:32:46;;;;;;;35.58;11.15;;;;;;;0.52;87.38;101484.93;1781845;78;21387;-76
2022/01/16 01:35:14;;;;;;;34.63;10.32;;;;;;;0.48;87.39;101499.52;1746198;80;21008;-76
2022/01/16 01:37:40;;;;;;;29.85;9.75;;;;;;;0.44;87.36;101512.41;1729345;80;21049;-76
2022/01/16 01:40:11;;;;;;;31.00;7.87;;;;;;;0.43;87.32;101491.02;1751083;80;21032;-76
2022/01/16 01:51:19;;;;;;;26.27;8.93;;;;;;;0.59;87.20;101378.70;1735271;80;21018;-76
2022/01/16 01:53:46;;;;;;;23.00;6.97;;;;;;;0.62;87.18;101363.64;1733490;80;21045;-76
2022/01/16 01:56:14;;;;;;;22.22;7.45;;;;;;;0.61;87.16;101367.65;1739456;80;21023;-76
2022/01/16 01:58:40;;;;;;;26.07;7.80;;;;;;;0.58;87.16;101383.56;1729996;80;21009;-76
2022/01/16 02:01:06;;;;;;;25.32;7.50;;;;;;;0.52;87.13;101404.89;1727499;80;21002;-76
2022/01/16 02:06:11;;;;;;;30.48;9.45;;;;;;;0.43;87.08;101414.94;1740818;80;21059;-76
2022/01/16 02:08:37;;;;;;;26.62;9.33;;;;;;;0.45;87.06;101414.41;1735499;80;21159;-76
2022/01/16 02:11:03;;;;;;;34.10;9.53;;;;;;;0.45;87.05;101401.29;1737409;80;21150;-76
2022/01/16 02:13:33;;;;;;;25.17;8.33;;;;;;;0.45;87.01;101401.29;1731901;80;21050;-76
2022/01/16 02:30:38;;;;;;;35.78;10.53;;;;;;;0.45;86.88;101401.29;1736141;80;21008;-75
2022/01/16 02:32:29;;;;;;;25.32;10.45;;;;;;;0.50;86.89;101394.00;1718765;80;21033;-76
2022/01/16 02:34:35;;;;;;;25.12;9.03;;;;;;;0.48;86.86;101390.63;1731404;80;21863;-76
2022/01/16 02:37:05;;;;;;;32.05;8.65;;;;;;;0.53;86.83;101399.55;1740340;80;21124;-76
2022/01/16 02:39:31;;;;;;;32.45;10.23;;;;;;;0.52;86.80;101410.14;1735738;80;21045;-76
2022/01/16 02:41:59;;;;;;;25.50;9.25;;;;;;;0.54;86.81;101416.14;1750136;80;21021;-76
2022/01/16 02:46:58;;;;;;;29.80;9.38;;;;;;;0.49;86.78;101411.16;1729698;80;21246;-76
2022/01/16 02:49:32;;;;;;;28.52;9.40;;;;;;;0.50;86.75;101408.44;1730820;80;25834;-76
2022/01/16 02:52:09;;;;;;;37.83;14.00;;;;;;;0.53;86.73;101410.05;1737055;80;21040;-75
2022/01/16 02:54:38;;;;;;;39.92;15.10;;;;;;;0.50;86.68;101408.44;1737223;80;21053;-76
2022/01/16 02:57:06;;;;;;;40.80;14.53;;;;;;;0.45;86.67;101388.63;1748103;80;21057;-76
2022/01/16 02:59:33;;;;;;;45.83;17.52;;;;;;;0.41;86.66;101374.83;1742565;80;21104;-76
2022/01/16 03:02:01;;;;;;;58.63;21.52;;;;;;;0.41;86.68;101363.02;1745647;80;21498;-76
2022/01/16 03:04:28;;;;;;;41.88;18.07;;;;;;;0.49;86.66;101368.69;1730725;80;21014;-76
2022/01/16 03:06:55;;;;;;;27.75;9.70;;;;;;;0.58;86.64;101371.75;1739155;80;21009;-76
2022/01/16 03:09:21;;;;;;;33.70;10.63;;;;;;;0.60;86.63;101367.29;1727333;80;21014;-76
2022/01/16 03:11:49;;;;;;;32.08;11.40;;;;;;;0.54;86.61;101371.53;1737714;80;21097;-75
2022/01/16 03:14:18;;;;;;;31.23;10.28;;;;;;;0.52;86.60;101373.41;1734022;80;21608;-76
2022/01/16 03:16:48;;;;;;;35.03;11.18;;;;;;;0.53;86.58;101363.30;1735488;80;21077;-76
2022/01/16 03:22:03;;;;;;;35.20;11.93;;;;;;;0.52;86.53;101353.72;1739293;80;21109;-76
2022/01/16 03:24:37;;;;;;;39.15;16.85;;;;;;;0.49;86.50;101339.82;1731529;80;21237;-76
2022/01/16 03:27:06;;;;;;;38.73;12.90;;;;;;;0.47;86.47;101346.09;1737657;81;21081;-76
2022/01/16 03:29:32;;;;;;;31.15;12.73;;;;;;;0.46;86.46;101337.83;1772665;79;21045;-76
2022/01/16 03:31:59;;;;;;;36.48;12.20;;;;;;;0.40;86.42;101332.46;1775731;79;21062;-76
2022/01/16 03:34:25;;;;;;;26.10;9.40;;;;;;;0.36;86.40;101326.98;1775562;79;21476;-76
2022/01/16 03:36:52;;;;;;;20.48;7.60;;;;;;;0.41;86.40;101316.26;1775228;79;21821;-75
2022/01/16 03:39:18;;;;;;;31.05;8.55;;;;;;;0.46;86.37;101313.75;1774467;79;21027;-76
2022/01/16 03:41:44;;;;;;;29.50;8.65;;;;;;;0.48;86.34;101315.84;1778791;79;20995;-77
2022/01/16 03:44:10;;;;;;;33.00;8.98;;;;;;;0.45;86.37;101308.61;1779273;79;20976;-76
2022/01/16 03:46:38;;;;;;;34.15;12.80;;;;;;;0.39;86.39;101295.34;1780852;79;21037;-76
2022/01/16 03:49:12;;;;;;;34.40;14.28;;;;;;;0.30;86.36;101287.98;1754380;79;21142;-75
2022/01/16 03:51:38;;;;;;;39.50;14.35;;;;;;;0.24;86.35;101286.16;1773475;79;20993;-76
2022/01/16 03:54:05;;;;;;;46.23;13.35;;;;;;;0.20;86.32;101284.16;1772874;79;21054;-75
2022/01/16 03:56:31;;;;;;;34.43;13.15;;;;;;;0.18;86.30;101278.59;1758794;81;21147;-76
2022/01/16 03:58:57;;;;;;;34.65;12.53;;;;;;;0.14;86.27;101273.16;1778052;79;21554;-76
2022/01/16 04:01:26;;;;;;;42.20;12.37;;;;;;;0.12;86.29;101267.98;1745308;81;21554;-76
2022/01/16 04:03:53;;;;;;;23.50;8.83;;;;;;;0.09;86.25;101257.66;1746931;81;21061;-76
2022/01/16 04:06:19;;;;;;;32.08;10.55;;;;;;;0.07;86.25;101253.44;1751428;80;21632;-76
2022/01/16 04:08:50;;;;;;;35.65;12.25;;;;;;;0.05;86.23;101249.58;1743985;80;20999;-76
2022/01/16 04:11:17;;;;;;;36.85;11.78;;;;;;;-0.01;86.23;101244.21;1740148;81;21040;-76
2022/01/16 04:13:52;;;;;;;32.78;11.53;;;;;;;-0.04;86.24;101239.14;1775613;79;21075;-76
2022/01/16 04:16:17;;;;;;;37.63;13.08;;;;;;;-0.07;86.23;101227.97;1780143;79;21005;-76
2022/01/16 04:18:43;;;;;;;39.70;12.90;;;;;;;-0.11;86.21;101229.05;1780909;79;21069;-76
2022/01/16 04:21:09;;;;;;;46.15;13.45;;;;;;;-0.16;86.19;101224.50;1782508;79;20929;-76
2022/01/16 04:23:35;;;;;;;44.05;12.82;;;;;;;-0.20;86.17;101221.66;1778803;79;20867;-76
2022/01/16 04:26:01;;;;;;;37.48;12.07;;;;;;;-0.26;86.18;101218.91;1784726;78;21122;-76
2022/01/16 04:28:27;;;;;;;37.88;13.53;;;;;;;-0.32;86.17;101217.09;1786867;78;20974;-76
2022/01/16 04:30:53;;;;;;;33.40;12.55;;;;;;;-0.36;86.17;101214.23;1782288;78;21033;-76
2022/01/16 04:33:19;;;;;;;43.33;12.53;;;;;;;-0.38;86.17;101212.14;1788013;78;21022;-76
2022/01/16 04:35:45;;;;;;;37.60;11.93;;;;;;;-0.42;86.16;101204.91;1778517;78;20986;-76
2022/01/16 04:38:11;;;;;;;45.63;14.83;;;;;;;-0.45;86.15;101198.98;1779377;78;21133;-76
2022/01/16 04:43:47;;;;;;;43.00;14.55;;;;;;;-0.48;86.15;101193.45;1790077;78;20930;-76
2022/01/16 04:45:58;;;;;;;43.40;13.75;;;;;;;-0.54;86.15;101185.46;1787230;78;21052;-76
2022/01/16 04:48:24;;;;;;;48.00;16.32;;;;;;;-0.56;86.18;101175.52;1784954;78;21011;-76
2022/01/16 04:50:50;;;;;;;41.98;16.05;;;;;;;-0.64;86.17;101171.16;1789068;78;21134;-76
2022/01/16 04:53:16;;;;;;;44.38;15.38;;;;;;;-0.68;86.18;101172.70;1778153;78;20974;-76
2022/01/16 04:55:43;;;;;;;41.48;15.53;;;;;;;-0.72;86.19;101163.30;1776277;78;21007;-76
2022/01/16 04:58:09;;;;;;;47.15;17.35;;;;;;;-0.78;86.18;101153.16;1781256;78;21614;-76
2022/01/16 05:00:35;;;;;;;37.73;15.68;;;;;;;-0.84;86.20;101143.83;1780788;78;21604;-76
2022/01/16 05:03:01;;;;;;;39.42;14.47;;;;;;;-0.89;86.19;101134.08;1780287;78;21506;-76
2022/01/16 05:05:27;;;;;;;39.33;14.55;;;;;;;-0.91;86.18;101134.59;1778380;78;20955;-76
2022/01/16 05:07:53;;;;;;;50.90;17.32;;;;;;;-0.88;86.21;101137.05;1782931;78;21087;-76
2022/01/16 05:10:19;;;;;;;39.73;18.45;;;;;;;-0.86;86.19;101132.60;1777455;78;20904;-76
2022/01/16 05:12:49;;;;;;;55.60;20.97;;;;;;;-0.91;86.21;101129.36;1781100;78;21064;-76
2022/01/16 05:17:57;;;;;;;57.38;23.32;;;;;;;-1.03;86.23;101119.09;1787462;78;20994;-76
2022/01/16 05:20:23;;;;;;;56.05;17.73;;;;;;;-1.06;86.25;101119.70;1789534;78;21070;-76
2022/01/16 05:22:49;;;;;;;35.83;13.10;;;;;;;-1.09;86.28;101119.86;1790301;78;20988;-76
2022/01/16 05:25:17;;;;;;;35.25;12.93;;;;;;;-1.13;86.29;101105.24;1788023;78;20911;-76
2022/01/16 05:27:43;;;;;;;38.10;13.35;;;;;;;-1.17;86.28;101103.70;1789169;78;21467;-76
2022/01/16 05:30:10;;;;;;;45.28;14.40;;;;;;;-1.21;86.27;101108.23;1793410;78;21452;-76
2022/01/16 05:32:36;;;;;;;44.50;14.73;;;;;;;-1.21;86.29;101106.08;1785465;78;21063;-76
2022/01/16 05:35:03;;;;;;;35.05;12.78;;;;;;;-1.16;86.32;101097.55;1779718;78;21001;-76
2022/01/16 05:37:29;;;;;;;38.80;14.63;;;;;;;-1.16;86.33;101089.21;1783502;78;21010;-76
2022/01/16 05:39:55;;;;;;;37.25;13.10;;;;;;;-1.17;86.34;101089.31;1784770;78;21153;-76
2022/01/16 05:42:21;;;;;;;34.03;11.55;;;;;;;-1.20;86.36;101085.55;1792818;78;20991;-76
2022/01/16 05:44:47;;;;;;;37.60;11.90;;;;;;;-1.21;86.39;101085.16;1788547;78;26762;-76
2022/01/16 05:47:13;;;;;;;29.30;11.73;;;;;;;-1.22;86.41;101090.84;1794330;78;21435;-76
2022/01/16 05:49:41;;;;;;;40.33;11.22;;;;;;;-1.24;86.40;101084.00;1780197;78;21014;-76
2022/01/16 05:52:07;;;;;;;34.25;11.53;;;;;;;-1.26;86.42;101076.67;1795305;78;21034;-76
2022/01/16 05:54:34;;;;;;;27.95;10.18;;;;;;;-1.27;86.44;101065.85;1792064;78;20999;-76
2022/01/16 05:57:00;;;;;;;33.85;11.68;;;;;;;-1.28;86.42;101068.08;1789789;78;21002;-76
2022/01/16 05:59:26;;;;;;;33.75;11.18;;;;;;;-1.29;86.44;101070.30;1793315;78;21664;-76
2022/01/16 06:01:52;;;;;;;41.48;12.07;;;;;;;-1.30;86.44;101072.06;1787710;78;21038;-76
2022/01/16 06:04:18;;;;;;;28.60;11.63;;;;;;;-1.30;86.46;101071.25;1788727;78;21130;-76
2022/01/16 06:06:44;;;;;;;38.40;10.78;;;;;;;-1.27;86.47;101073.70;1781186;78;26951;-76
2022/01/16 06:09:10;;;;;;;35.58;12.13;;;;;;;-1.27;86.51;101068.47;1782112;78;21022;-76
2022/01/16 06:11:36;;;;;;;30.27;12.00;;;;;;;-1.28;86.50;101066.31;1777547;78;21392;-76
2022/01/16 06:14:02;;;;;;;34.35;12.03;;;;;;;-1.30;86.50;101069.94;1785106;78;21046;-76
2022/01/16 06:16:28;;;;;;;33.95;12.58;;;;;;;-1.29;86.52;101072.91;1783172;78;21145;-76
2022/01/16 06:18:54;;;;;;;38.02;13.95;;;;;;;-1.30;86.54;101069.94;1783498;78;21011;-76
2022/01/16 06:21:20;;;;;;;37.33;13.05;;;;;;;-1.31;86.55;101069.55;1744418;80;21020;-76
2022/01/16 06:23:46;;;;;;;36.38;14.78;;;;;;;-1.31;86.58;101066.93;1779799;78;20953;-76
2022/01/16 06:26:12;;;;;;;38.28;16.05;;;;;;;-1.33;86.59;101061.77;1778377;78;21005;-76
2022/01/16 06:28:38;;;;;;;44.15;16.77;;;;;;;-1.36;86.61;101055.38;1730051;80;21879;-76
2022/01/16 06:31:04;;;;;;;41.37;17.60;;;;;;;-1.39;86.61;101049.46;1738274;80;21501;-76
2022/01/16 06:33:30;;;;;;;40.73;16.02;;;;;;;-1.40;86.62;101041.22;1726638;80;20994;-76
2022/01/16 06:35:56;;;;;;;36.90;13.53;;;;;;;-1.39;86.62;101042.92;1737414;80;21014;-76
2022/01/16 06:38:22;;;;;;;41.63;14.00;;;;;;;-1.41;86.62;101036.94;1730977;80;20898;-76
2022/01/16 06:40:48;;;;;;;37.25;14.30;;;;;;;-1.43;86.62;101041.38;1734050;80;21247;-76
2022/01/16 06:43:14;;;;;;;32.35;13.40;;;;;;;-1.45;86.63;101043.24;1748147;80;20997;-76
2022/01/16 06:45:40;;;;;;;41.98;15.45;;;;;;;-1.46;86.63;101039.78;1734910;80;21049;-76
2022/01/16 06:48:06;;;;;;;43.15;14.03;;;;;;;-1.48;86.64;101035.55;1732103;80;21390;-76
2022/01/16 06:50:32;;;;;;;49.48;16.65;;;;;;;-1.45;86.64;101034.94;1735245;80;20899;-76
2022/01/16 06:52:58;;;;;;;67.62;22.80;;;;;;;-1.45;86.65;101035.39;1739267;80;21603;-76
2022/01/16 06:55:24;;;;;;;41.35;15.35;;;;;;;-1.44;86.66;101034.48;1740152;80;21012;-76
2022/01/16 06:57:50;;;;;;;94.62;35.43;;;;;;;-1.44;86.69;101031.87;1725799;80;21065;-76
2022/01/16 07:00:16;;;;;;;65.37;27.50;;;;;;;-1.45;86.68;101035.39;1732702;80;21475;-76
2022/01/16 07:02:42;;;;;;;79.15;31.42;;;;;;;-1.45;86.71;101043.24;1746049;80;21080;-76
2022/01/16 07:05:09;;;;;;;279.18;123.05;;;;;;;-1.45;86.73;101036.70;1753233;80;21826;-76
2022/01/16 07:07:35;;;;;;;96.97;38.85;;;;;;;-1.44;86.72;101036.61;1732488;80;21467;-76
2022/01/16 07:10:02;;;;;;;56.98;19.10;;;;;;;-1.44;86.74;101041.02;1734444;80;21009;-76
2022/01/16 07:12:28;;;;;;;45.52;18.02;;;;;;;-1.43;86.75;101031.77;1748211;80;21010;-76
2022/01/16 07:14:55;;;;;;;98.12;35.13;;;;;;;-1.42;86.75;101035.23;1747861;80;37950;-76
2022/01/16 07:17:21;;;;;;;56.15;21.73;;;;;;;-1.43;86.75;101039.62;1737537;80;21596;-76
2022/01/16 07:19:47;;;;;;;59.77;22.87;;;;;;;-1.40;86.76;101042.53;1739044;80;21012;-77
2022/01/16 07:22:13;;;;;;;80.70;25.57;;;;;;;-1.33;86.79;101037.37;1740728;80;21053;-76
2022/01/16 07:24:39;;;;;;;58.45;20.55;;;;;;;-1.32;86.79;101033.37;1744330;80;21022;-76
2022/01/16 07:27:06;;;;;;;93.07;28.15;;;;;;;-1.29;86.80;101033.22;1727834;80;21042;-78
2022/01/16 07:29:32;;;;;;;83.10;23.62;;;;;;;-1.27;86.81;101028.77;1732827;81;21916;-76
2022/01/16 07:31:58;;;;;;;77.22;25.37;;;;;;;-1.24;86.81;101027.75;1724411;82;21026;-76
2022/01/16 07:34:24;;;;;;;80.70;25.92;;;;;;;-1.20;86.83;101030.59;1733478;81;21319;-76
2022/01/16 07:36:50;;;;;;;84.83;27.25;;;;;;;-1.13;86.83;101026.73;1740108;81;21076;-75
2022/01/16 07:39:16;;;;;;;79.55;22.37;;;;;;;-0.98;86.77;101031.59;1750914;81;20913;-75
2022/01/16 07:41:42;;;;;;;77.87;26.52;;;;;;;-0.94;86.77;101033.98;1733675;81;21046;-76
2022/01/16 07:44:08;;;;;;;73.70;24.50;;;;;;;-0.92;86.73;101034.77;1746205;81;21058;-76
2022/01/16 07:46:34;;;;;;;61.95;21.10;;;;;;;-0.96;86.75;101041.55;1749166;81;21012;-76
2022/01/16 07:49:00;;;;;;;71.50;23.32;;;;;;;-0.98;86.76;101041.61;1747472;81;20959;-75
2022/01/16 07:51:26;;;;;;;66.95;26.05;;;;;;;-1.01;86.77;101036.54;1750259;81;21510;-77
2022/01/16 07:53:52;;;;;;;61.37;22.62;;;;;;;-1.00;86.81;101042.17;1744475;81;21804;-76
2022/01/16 07:56:18;;;;;;;54.77;20.12;;;;;;;-0.98;86.80;101033.76;1741483;81;21505;-76
2022/01/16 07:58:44;;;;;;;58.13;20.37;;;;;;;-0.93;86.78;101033.06;1739627;81;21049;-76
2022/01/16 08:01:10;;;;;;;55.28;20.15;;;;;;;-0.86;86.82;101022.65;1749785;81;21003;-76
2022/01/16 08:03:36;;;;;;;54.42;20.45;;;;;;;-0.78;86.84;101029.64;1748414;81;21093;-76
2022/01/16 08:06:02;;;;;;;51.30;20.23;;;;;;;-0.66;86.84;101027.64;1743061;81;21153;-76
2022/01/16 08:08:28;;;;;;;49.27;23.85;;;;;;;-0.55;86.84;101027.91;1738911;81;20990;-76
2022/01/16 08:10:54;;;;;;;60.12;23.45;;;;;;;-0.47;86.84;101029.27;1741556;81;21069;-76
2022/01/16 08:13:21;;;;;;;54.27;23.20;;;;;;;-0.38;86.85;101023.50;1736548;81;21113;-76
2022/01/16 08:15:47;;;;;;;56.35;22.65;;;;;;;-0.28;86.87;101020.78;1738963;81;21059;-76
2022/01/16 08:18:12;;;;;;;64.55;28.90;;;;;;;-0.17;86.88;101024.92;1743940;81;21194;-76
2022/01/16 08:20:39;;;;;;;50.10;22.75;;;;;;;-0.06;86.89;101023.39;1737943;81;21473;-76
2022/01/16 08:23:05;;;;;;;58.80;22.52;;;;;;;0.00;86.93;101011.73;1731091;81;21486;-76
2022/01/16 08:25:32;;;;;;;68.07;28.02;;;;;;;0.07;86.90;101014.34;1730045;81;21058;-76
2022/01/16 08:27:58;;;;;;;54.50;24.27;;;;;;;0.11;86.88;101017.17;1723996;81;21011;-76
2022/01/16 08:30:23;;;;;;;53.33;22.77;;;;;;;0.16;86.87;101016.45;1733122;81;21204;-76
2022/01/16 08:32:50;;;;;;;53.17;21.12;;;;;;;0.22;86.87;101020.03;1737229;81;21062;-75
2022/01/16 08:35:16;;;;;;;61.53;24.90;;;;;;;0.26;86.84;101028.10;1736368;81;21022;-76
2022/01/16 08:37:41;;;;;;;73.07;29.65;;;;;;;0.32;86.82;101020.33;1736879;81;20962;-76
2022/01/16 08:40:09;;;;;;;65.55;26.55;;;;;;;0.35;86.79;101022.30;1729850;81;21527;-76
2022/01/16 08:42:40;;;;;;;55.70;24.35;;;;;;;0.39;86.78;101015.95;1712952;81;21721;-75
2022/01/16 08:45:07;;;;;;;62.53;28.75;;;;;;;0.39;86.79;101015.95;1704497;82;21507;-76
2022/01/16 08:47:33;;;;;;;61.13;29.23;;;;;;;0.43;86.74;101005.66;1723364;81;20998;-76
2022/01/16 08:49:59;;;;;;;73.92;30.82;;;;;;;0.56;86.74;101008.88;1722996;81;21353;-76
2022/01/16 08:52:26;;;;;;;56.70;26.45;;;;;;;0.64;86.72;101009.24;1726120;81;21482;-76
2022/01/16 08:54:52;;;;;;;64.47;26.60;;;;;;;0.67;86.70;101010.40;1729288;81;21144;-76
2022/01/16 08:57:18;;;;;;;67.25;28.55;;;;;;;0.68;86.70;100996.31;1723136;81;20979;-76
2022/01/16 08:59:44;;;;;;;56.08;25.40;;;;;;;0.73;86.69;100998.21;1729607;81;21054;-76
2022/01/16 09:02:10;;;;;;;63.63;29.23;;;;;;;0.69;86.63;101000.64;1731962;81;21041;-76
2022/01/16 09:04:36;;;;;;;81.40;36.33;;;;;;;0.73;86.63;100996.90;1730370;81;21456;-76
2022/01/16 09:07:02;;;;;;;71.17;31.73;;;;;;;0.77;86.61;100993.16;1727776;81;22034;-76
2022/01/16 09:09:30;;;;;;;75.42;33.80;;;;;;;0.83;86.54;100987.52;1723833;81;20964;-76
2022/01/16 09:11:56;;;;;;;73.78;32.15;;;;;;;0.88;86.51;100990.73;1741601;81;21026;-76
2022/01/16 09:14:22;;;;;;;70.32;30.43;;;;;;;0.96;86.49;100982.73;1741419;81;21013;-76
2022/01/16 09:16:48;;;;;;;59.80;25.80;;;;;;;1.00;86.46;100976.83;1737893;81;21021;-76
2022/01/16 09:19:15;;;;;;;59.23;26.52;;;;;;;1.03;86.45;100980.57;1736282;81;21806;-76
2022/01/16 09:21:41;;;;;;;59.00;25.25;;;;;;;1.06;86.42;100979.53;1736397;81;21053;-76
2022/01/16 09:24:07;;;;;;;62.38;28.30;;;;;;;1.10;86.36;100976.63;1732165;81;20985;-75
2022/01/16 09:26:33;;;;;;;62.98;30.23;;;;;;;1.14;86.33;100968.93;1744372;80;20899;-76
2022/01/16 09:29:00;;;;;;;78.42;33.30;;;;;;;1.23;86.28;100967.52;1774282;79;21539;-76
2022/01/16 09:31:26;;;;;;;123.75;50.28;;;;;;;1.28;86.20;100970.69;1774594;79;21930;-76
2022/01/16 09:33:54;;;;;;;51.92;25.45;;;;;;;1.35;86.15;100958.84;1781736;79;21491;-76
2022/01/16 09:36:20;;;;;;;56.55;25.27;;;;;;;1.36;86.10;100963.17;1763162;79;20978;-76
2022/01/16 09:38:46;;;;;;;64.77;25.92;;;;;;;1.38;86.07;100960.81;1772364;79;21039;-76
2022/01/16 09:41:12;;;;;;;50.65;23.07;;;;;;;1.41;86.03;100955.36;1776772;79;21491;-76
2022/01/16 09:43:38;;;;;;;60.20;22.02;;;;;;;1.47;85.99;100958.08;1779194;79;21774;-75
2022/01/16 09:46:05;;;;;;;89.45;32.60;;;;;;;1.55;85.93;100958.91;1764173;79;21039;-75
2022/01/16 09:48:31;;;;;;;111.88;43.58;;;;;;;1.63;85.87;100956.60;1769612;79;21044;-76
2022/01/16 09:50:57;;;;;;;102.97;41.83;;;;;;;1.67;85.82;100951.06;1778546;79;20954;-76
2022/01/16 09:53:23;;;;;;;113.90;45.23;;;;;;;1.68;85.78;100942.70;1764554;79;20938;-75
2022/01/16 09:55:49;;;;;;;129.63;45.78;;;;;;;1.75;85.75;100941.36;1767533;79;21829;-77
2022/01/16 09:58:16;;;;;;;68.90;25.48;;;;;;;1.80;85.71;100930.05;1781492;79;20980;-76
2022/01/16 10:00:42;;;;;;;53.58;22.82;;;;;;;1.83;85.68;100923.30;1779804;79;20995;-75
2022/01/16 10:03:09;;;;;;;41.23;20.00;;;;;;;1.79;85.64;100924.45;1764103;79;20854;-75
2022/01/16 10:05:39;;;;;;;40.80;17.48;;;;;;;1.73;85.59;100922.20;1768378;79;21000;-75
2022/01/16 10:08:07;;;;;;;40.75;18.67;;;;;;;1.69;85.51;100923.38;1774056;79;21135;-75
2022/01/16 10:10:36;;;;;;;40.23;16.52;;;;;;;1.63;85.46;100921.13;1771181;79;20998;-75
2022/01/16 10:13:33;;;;;;;42.70;18.27;;;;;;;1.62;85.39;100916.83;1757180;79;21510;-75
2022/01/16 10:15:57;;;;;;;37.73;17.87;;;;;;;1.61;85.31;100912.50;1762744;79;20991;-75
2022/01/16 10:18:40;;;;;;;40.85;18.67;;;;;;;1.63;85.27;100907.98;1761367;79;21007;-75
2022/01/16 10:21:09;;;;;;;41.00;18.80;;;;;;;1.63;85.21;100910.61;1773654;79;21087;-75
2022/01/16 10:23:39;;;;;;;45.78;21.93;;;;;;;1.66;85.15;100911.72;1768547;79;21007;-73
2022/01/16 10:26:05;;;;;;;36.03;20.57;;;;;;;1.70;85.11;100911.42;1741558;79;21002;-74
2022/01/16 10:28:33;;;;;;;43.35;20.85;;;;;;;1.74;85.11;100911.59;1776292;78;21559;-74
2022/01/16 10:30:59;;;;;;;51.75;22.42;;;;;;;1.77;85.07;100900.02;1746152;80;20991;-74
2022/01/16 10:33:33;;;;;;;47.43;21.33;;;;;;;1.77;85.01;100895.61;1746577;80;21053;-74
2022/01/16 10:35:59;;;;;;;45.70;21.87;;;;;;;1.83;84.99;100891.75;1741849;80;21039;-74
2022/01/16 10:38:28;;;;;;;53.00;24.60;;;;;;;1.88;84.94;100892.27;1733484;80;21071;-73
2022/01/16 10:40:57;;;;;;;40.83;20.92;;;;;;;1.94;84.88;100883.49;1735004;80;21014;-73
2022/01/16 10:43:45;;;;;;;39.23;18.87;;;;;;;2.02;84.84;100886.92;1727166;80;21081;-74
2022/01/16 10:46:12;;;;;;;45.25;19.02;;;;;;;2.09;84.81;100884.72;1733254;80;21146;-74
2022/01/16 10:48:38;;;;;;;33.73;16.90;;;;;;;2.18;84.75;100880.16;1734305;80;21038;-73
2022/01/16 10:51:05;;;;;;;36.28;17.37;;;;;;;2.27;84.74;100877.73;1731794;80;21577;-74
2022/01/16 10:53:32;;;;;;;29.42;16.30;;;;;;;2.33;84.68;100870.73;1729108;80;21030;-74
2022/01/16 10:55:59;;;;;;;38.08;16.87;;;;;;;2.35;84.66;100866.69;1735050;80;21035;-74
2022/01/16 10:58:31;;;;;;;36.40;18.70;;;;;;;2.35;84.58;100862.27;1707674;82;22304;-74
2022/01/16 11:01:03;;;;;;;30.52;16.80;;;;;;;2.36;84.54;100859.14;1731175;80;21069;-74
2022/01/16 11:03:31;;;;;;;37.45;17.37;;;;;;;2.40;84.42;100851.41;1728096;80;21113;-74
2022/01/16 11:05:57;;;;;;;37.63;18.65;;;;;;;2.40;84.38;100843.04;1733638;80;21049;-73
2022/01/16 11:08:25;;;;;;;38.28;18.07;;;;;;;2.42;84.32;100835.89;1731382;80;20996;-73
2022/01/16 11:10:54;;;;;;;40.80;18.23;;;;;;;2.51;84.29;100845.77;1733948;80;21161;-74
2022/01/16 11:13:22;;;;;;;37.58;15.83;;;;;;;2.56;84.21;100831.45;1740253;80;21097;-74
2022/01/16 11:15:53;;;;;;;42.85;20.00;;;;;;;2.59;84.13;100822.02;1737707;80;21534;-74
2022/01/16 11:18:21;;;;;;;33.67;14.98;;;;;;;2.61;84.07;100821.41;1747527;80;21598;-74
2022/01/16 11:21:07;;;;;;;26.00;13.80;;;;;;;2.63;84.01;100820.84;1754694;80;21062;-74
2022/01/16 11:23:33;;;;;;;34.73;16.35;;;;;;;2.64;83.94;100812.01;1739500;80;21148;-73
2022/01/16 11:26:06;;;;;;;34.10;17.50;;;;;;;2.66;83.89;100798.24;1757315;80;21664;-73
2022/01/16 11:28:32;;;;;;;27.70;15.53;;;;;;;2.73;83.83;100782.37;1742775;80;21037;-73
2022/01/16 11:31:01;;;;;;;39.63;23.52;;;;;;;2.79;83.75;100779.29;1748608;80;21003;-73
2022/01/16 11:33:28;;;;;;;33.20;16.48;;;;;;;2.83;83.71;100788.18;1753527;80;21013;-73
2022/01/16 11:36:00;;;;;;;53.78;28.23;;;;;;;2.82;83.66;100797.02;1751053;80;21146;-74
2022/01/16 11:38:33;;;;;;;35.23;16.35;;;;;;;2.83;83.61;100788.18;1742612;80;21041;-72
2022/01/16 11:41:17;;;;;;;34.55;17.92;;;;;;;2.84;83.52;100778.49;1710238;82;21532;-73
2022/01/16 11:43:48;;;;;;;29.98;16.48;;;;;;;2.85;83.40;100767.02;1739682;82;21005;-72
2022/01/16 11:46:20;;;;;;;32.13;16.87;;;;;;;2.87;83.36;100759.83;1739640;82;21050;-72
2022/01/16 11:49:02;;;;;;;31.17;16.80;;;;;;;2.88;83.31;100770.73;1739720;82;21231;-72
2022/01/16 11:51:43;;;;;;;34.58;17.42;;;;;;;2.85;83.19;100755.16;1732643;82;21073;-72
2022/01/16 11:54:11;;;;;;;37.30;17.17;;;;;;;2.86;83.07;100745.81;1723581;82;21026;-72